createdAt,value
2019-06-26T00:04:46.295Z,20.50
2019-06-26T00:09:53.534Z,20.50
2019-06-26T00:15:00.828Z,20.40
2019-06-26T00:20:08.652Z,20.30
2019-06-26T00:25:16.028Z,20.30
2019-06-26T00:30:23.398Z,20.20
2019-06-26T00:35:31.273Z,20.20
2019-06-26T00:40:38.315Z,20.10
2019-06-26T00:45:45.527Z,20.10
2019-06-26T00:50:52.597Z,20.10
2019-06-26T00:55:59.682Z,20.10
2019-06-26T01:01:06.983Z,20.10
2019-06-26T01:06:33.525Z,20.10
2019-06-26T01:11:40.654Z,20.10
2019-06-26T01:16:49.327Z,20.10
2019-06-26T01:21:58.072Z,20.10
2019-06-26T01:27:05.827Z,20.10
2019-06-26T01:32:13.269Z,20.10
2019-06-26T01:37:20.423Z,20.00
2019-06-26T01:42:27.695Z,20.00
2019-06-26T01:47:35.240Z,20.00
2019-06-26T01:52:42.446Z,19.90
2019-06-26T01:57:50.420Z,19.90
2019-06-26T02:02:57.560Z,19.90
2019-06-26T02:08:05.690Z,19.90
2019-06-26T02:13:13.123Z,19.80
2019-06-26T02:18:36.657Z,19.70
2019-06-26T02:23:43.814Z,19.60
2019-06-26T02:28:51.049Z,19.60
2019-06-26T02:33:58.150Z,19.60
2019-06-26T02:39:07.402Z,19.50
2019-06-26T02:44:14.578Z,19.50
2019-06-26T02:49:22.013Z,19.40
2019-06-26T02:54:29.074Z,19.50
2019-06-26T02:59:36.149Z,19.50
2019-06-26T03:04:43.208Z,19.50
2019-06-26T03:09:50.305Z,19.60
2019-06-26T03:15:08.330Z,19.60
2019-06-26T03:20:07.417Z,19.70
2019-06-26T03:25:14.801Z,19.80
2019-06-26T03:30:22.072Z,20.00
2019-06-26T03:35:29.170Z,20.10
2019-06-26T03:40:36.374Z,20.20
2019-06-26T03:45:43.356Z,20.20
2019-06-26T03:50:50.458Z,20.40
2019-06-26T03:55:57.837Z,20.60
2019-06-26T04:01:09.124Z,20.70
2019-06-26T04:06:16.202Z,20.90
2019-06-26T04:11:23.265Z,21.30
2019-06-26T04:16:30.489Z,21.70
2019-06-26T04:21:38.606Z,22.00
2019-06-26T04:26:47.112Z,22.30
2019-06-26T04:31:54.219Z,22.60
2019-06-26T04:37:02.429Z,22.90
2019-06-26T04:42:09.521Z,23.10
2019-06-26T04:47:16.653Z,23.30
2019-06-26T04:52:23.840Z,23.40
2019-06-26T04:57:31.109Z,23.60
2019-06-26T05:02:38.225Z,23.70
2019-06-26T05:07:46.437Z,24.00
2019-06-26T05:12:53.546Z,24.30
2019-06-26T05:18:00.665Z,24.50
2019-06-26T05:23:07.869Z,24.90
2019-06-26T05:28:14.937Z,25.10
2019-06-26T05:33:22.011Z,25.20
2019-06-26T05:38:29.191Z,25.40
2019-06-26T05:43:36.550Z,25.50
2019-06-26T05:48:43.666Z,25.60
2019-06-26T05:53:51.997Z,25.70
2019-06-26T05:58:59.141Z,25.90
2019-06-26T06:04:06.354Z,26.00
2019-06-26T06:09:13.469Z,26.20
2019-06-26T06:14:20.656Z,26.50
2019-06-26T06:19:28.026Z,26.50
2019-06-26T06:24:35.587Z,26.70
2019-06-26T06:29:42.732Z,26.90
2019-06-26T06:34:50.084Z,27.20
2019-06-26T06:39:57.269Z,27.40
2019-06-26T06:45:05.063Z,27.70
2019-06-26T06:50:12.504Z,27.90
2019-06-26T06:55:19.698Z,28.00
2019-06-26T07:00:27.013Z,28.30
2019-06-26T07:05:35.650Z,28.40
2019-06-26T07:10:42.834Z,28.40
2019-06-26T07:15:50.020Z,28.70
2019-06-26T07:20:57.444Z,29.00
2019-06-26T07:26:05.440Z,29.30
2019-06-26T07:31:12.789Z,29.70
2019-06-26T07:36:19.930Z,29.90
2019-06-26T07:41:27.198Z,30.10
2019-06-26T07:46:35.416Z,30.20
2019-06-26T07:51:42.667Z,30.50
2019-06-26T07:56:49.874Z,30.70
2019-06-26T08:01:57.097Z,30.90
2019-06-26T08:07:04.245Z,31.10
2019-06-26T08:12:11.428Z,31.30
2019-06-26T08:17:18.804Z,31.40
2019-06-26T08:22:25.875Z,31.60
2019-06-26T08:27:33.142Z,31.70
2019-06-26T08:32:40.874Z,31.70
2019-06-26T08:37:48.029Z,31.90
2019-06-26T08:42:57.469Z,31.90
2019-06-26T08:48:19.060Z,32.00
2019-06-26T08:53:13.581Z,32.10
2019-06-26T08:58:20.533Z,32.10
2019-06-26T09:03:28.057Z,32.20
2019-06-26T09:08:35.646Z,32.50
2019-06-26T09:13:42.807Z,32.90
2019-06-26T09:18:49.889Z,33.00
2019-06-26T09:23:56.953Z,32.80
2019-06-26T09:29:04.081Z,32.80
2019-06-26T09:34:11.167Z,32.80
2019-06-26T09:39:18.459Z,32.80
2019-06-26T09:44:25.607Z,33.10
2019-06-26T09:49:32.769Z,33.30
2019-06-26T09:54:39.980Z,33.30
2019-06-26T09:59:48.124Z,33.40
2019-06-26T10:04:55.192Z,33.80
2019-06-26T10:10:02.326Z,34.10
2019-06-26T10:15:09.949Z,34.10
2019-06-26T10:20:17.298Z,34.00
2019-06-26T10:25:24.366Z,34.30
2019-06-26T10:30:31.361Z,34.20
2019-06-26T10:35:38.425Z,34.40
2019-06-26T10:40:45.388Z,34.80
2019-06-26T10:45:52.609Z,35.20
2019-06-26T10:50:59.582Z,35.10
2019-06-26T10:56:07.656Z,35.00
2019-06-26T11:01:14.764Z,34.80
2019-06-26T11:06:22.295Z,34.80
2019-06-26T11:11:29.402Z,35.00
2019-06-26T11:16:36.537Z,35.30
2019-06-26T11:21:44.153Z,35.30
2019-06-26T11:26:51.230Z,35.50
2019-06-26T11:31:58.327Z,35.20
2019-06-26T11:37:05.750Z,35.20
2019-06-26T11:42:13.098Z,35.20
2019-06-26T11:47:20.250Z,35.50
2019-06-26T11:52:27.772Z,36.00
2019-06-26T11:57:35.596Z,35.80
2019-06-26T12:02:43.001Z,35.10
2019-06-26T12:07:50.144Z,35.80
2019-06-26T12:12:57.573Z,36.50
2019-06-26T12:18:05.728Z,36.70
2019-06-26T12:23:13.180Z,36.60
2019-06-26T12:28:20.369Z,36.40
2019-06-26T12:33:27.422Z,36.30
2019-06-26T12:38:34.513Z,36.80
2019-06-26T12:43:41.923Z,37.20
2019-06-26T12:48:49.076Z,36.80
2019-06-26T12:53:58.400Z,38.20
2019-06-26T12:59:04.737Z,39.10
2019-06-26T13:04:11.913Z,39.10
2019-06-26T13:09:19.000Z,38.70
2019-06-26T13:14:26.211Z,38.40
2019-06-26T13:19:33.395Z,38.10
2019-06-26T13:24:43.838Z,36.90
2019-06-26T13:34:57.211Z,38.30
2019-06-26T13:40:04.389Z,37.50
2019-06-26T13:45:11.932Z,38.90
2019-06-26T13:50:19.619Z,41.00
2019-06-26T13:55:26.570Z,40.80
2019-06-26T14:00:33.631Z,41.40
2019-06-26T14:05:40.827Z,40.80
2019-06-26T14:10:47.870Z,40.80
2019-06-26T14:15:55.419Z,41.50
2019-06-26T14:21:02.767Z,40.80
2019-06-26T14:26:09.998Z,40.40
2019-06-26T14:31:17.371Z,40.30
2019-06-26T14:36:24.422Z,40.90
2019-06-26T14:41:31.547Z,40.20
2019-06-26T14:46:38.621Z,40.20
2019-06-26T14:51:47.771Z,39.50
2019-06-26T14:56:54.278Z,40.30
2019-06-26T15:02:01.953Z,41.00
2019-06-26T15:07:08.933Z,41.10
2019-06-26T15:12:16.040Z,41.00
2019-06-26T15:17:23.114Z,40.00
2019-06-26T15:22:30.302Z,40.70
2019-06-26T15:27:37.499Z,39.80
2019-06-26T15:32:44.673Z,39.50
2019-06-26T15:37:51.942Z,39.30
2019-06-26T15:42:59.117Z,39.30
2019-06-26T15:48:06.223Z,39.90
2019-06-26T15:53:13.322Z,39.40
2019-06-26T15:58:20.313Z,38.60
2019-06-26T16:03:27.412Z,37.90
2019-06-26T16:08:34.577Z,36.70
2019-06-26T16:13:41.707Z,37.10
2019-06-26T16:18:53.619Z,36.90
2019-06-26T16:24:00.781Z,36.10
2019-06-26T16:29:07.836Z,35.60
2019-06-26T16:34:14.988Z,35.90
2019-06-26T16:39:24.416Z,36.00
2019-06-26T16:44:31.754Z,35.40
2019-06-26T16:49:38.831Z,34.90
2019-06-26T16:54:46.596Z,34.40
2019-06-26T17:00:08.426Z,34.40
2019-06-26T17:05:02.594Z,34.40
2019-06-26T17:10:10.896Z,34.20
2019-06-26T17:15:19.087Z,34.10
2019-06-26T17:20:27.434Z,34.00
2019-06-26T17:25:34.706Z,34.00
2019-06-26T17:30:41.793Z,33.80
2019-06-26T17:35:50.511Z,33.80
2019-06-26T17:40:59.525Z,33.70
2019-06-26T17:46:06.389Z,33.30
2019-06-26T17:51:13.479Z,32.60
2019-06-26T17:56:20.698Z,32.00
2019-06-26T18:01:29.021Z,31.40
2019-06-26T18:06:36.147Z,31.00
2019-06-26T18:11:43.225Z,30.70
2019-06-26T18:16:51.578Z,30.40
2019-06-26T18:21:58.745Z,30.10
2019-06-26T18:27:06.059Z,29.80
2019-06-26T18:32:13.124Z,29.40
2019-06-26T18:37:20.674Z,29.10
2019-06-26T18:42:27.731Z,28.80
2019-06-26T18:47:34.823Z,28.60
2019-06-26T18:52:41.948Z,27.50
2019-06-26T18:57:49.042Z,26.30
2019-06-26T19:02:56.240Z,25.40
2019-06-26T19:08:03.328Z,24.90
2019-06-26T19:13:10.312Z,24.70
2019-06-26T19:18:17.764Z,24.60
2019-06-26T19:23:24.964Z,24.60
2019-06-26T19:28:32.155Z,24.60
2019-06-26T19:33:39.842Z,24.50
2019-06-26T19:38:47.002Z,24.40
2019-06-26T19:43:54.103Z,24.50
2019-06-26T19:49:01.088Z,24.30
2019-06-26T19:54:08.667Z,24.30
2019-06-26T19:59:15.853Z,24.30
2019-06-26T20:04:23.009Z,24.30
2019-06-26T20:09:30.215Z,24.30
2019-06-26T20:14:37.288Z,24.40
2019-06-26T20:19:45.816Z,24.30
2019-06-26T20:24:57.195Z,24.10
2019-06-26T20:30:02.469Z,23.90
2019-06-26T20:35:09.875Z,23.70
2019-06-26T20:40:17.212Z,23.60
2019-06-26T20:45:24.399Z,23.60
2019-06-26T20:50:31.513Z,23.60
2019-06-26T20:55:38.777Z,23.40
2019-06-26T21:00:45.929Z,23.30
2019-06-26T21:05:52.947Z,23.10
2019-06-26T21:11:11.723Z,23.10
2019-06-26T21:16:20.546Z,22.90
2019-06-26T21:21:27.566Z,22.80
2019-06-26T21:26:34.644Z,22.80
2019-06-26T21:31:41.626Z,22.70
2019-06-26T21:36:48.907Z,22.60
2019-06-26T21:41:55.993Z,22.50
2019-06-26T21:47:03.087Z,22.30
2019-06-26T21:52:10.203Z,22.10
2019-06-26T21:57:17.376Z,22.00
2019-06-26T22:08:29.906Z,21.80
2019-06-26T22:13:38.966Z,21.70
2019-06-26T22:18:46.362Z,21.60
2019-06-26T22:23:53.533Z,21.60
2019-06-26T22:29:00.616Z,21.50
2019-06-26T22:34:08.683Z,21.30
2019-06-26T22:39:15.830Z,21.10
2019-06-26T22:44:23.094Z,21.00
2019-06-26T22:49:30.195Z,20.90
2019-06-26T22:54:37.486Z,20.80
2019-06-26T22:59:44.519Z,20.60
2019-06-26T23:04:51.600Z,20.40
2019-06-26T23:09:58.654Z,20.30
2019-06-26T23:15:06.478Z,20.10
2019-06-26T23:20:13.825Z,20.00
2019-06-26T23:25:20.979Z,19.80
2019-06-26T23:30:29.063Z,19.80
2019-06-26T23:35:36.111Z,19.70
2019-06-26T23:40:43.445Z,19.60
2019-06-26T23:45:50.500Z,19.50
2019-06-26T23:50:58.163Z,19.40
2019-06-26T23:56:05.683Z,19.20
